This is the latest recevied weather packets stored in our database for station/object WX7FGZ-7. If no packets are shown the sender has not sent any weather packets the latest 10 day(s).
| Time | Temp. | Humidity | Pressure | Rain* | Wind** | Luminosity | Snow |
|---|---|---|---|---|---|---|---|
| 1777736704 | 15.56° C | 23% | 1023 hPa | 0 mm | - | - | - |
| 1777736403 | 15° C | 24% | 1022.7 hPa | 0 mm | - | - | - |
| 1777736105 | 15° C | 24% | 1022.7 hPa | 0 mm | - | - | - |
| 1777735106 | 13.89° C | 24% | 1022.9 hPa | 0 mm | - | - | - |
| 1777734904 | 13.89° C | 24% | 1022.9 hPa | 0 mm | - | - | - |
| 1777734322 | 13.33° C | 24% | 1022.9 hPa | 0 mm | - | - | - |
| 1777733131 | 12.78° C | 24% | 1022.7 hPa | 0 mm | - | - | - |
| 1777732737 | 12.78° C | 23% | 1022.6 hPa | 0 mm | - | - | - |
| 1777732508 | 12.78° C | 23% | 1022.6 hPa | 0 mm | - | - | - |
| 1777732127 | 12.22° C | 25% | 1022.5 hPa | 0 mm | - | - | - |
| 1777731908 | 12.22° C | 25% | 1022.5 hPa | 0 mm | - | - | - |
| 1777730333 | 11.11° C | 25% | 1022.1 hPa | 0 mm | - | - | - |
| 1777730104 | 11.11° C | 25% | 1022.1 hPa | 0 mm | - | - | - |
| 1777728321 | 7.22° C | 32% | 1021.6 hPa | 0 mm | - | - | - |
| 1777727707 | 6.11° C | 32% | 1021.3 hPa | 0 mm | - | - | - |
| 1777727470 | 5° C | 34% | 1021.2 hPa | 0 mm | - | - | - |
| 1777727125 | 5° C | 34% | 1021.2 hPa | 0 mm | - | - | - |
| 1777726865 | 5° C | 34% | 1021.1 hPa | 0 mm | - | - | - |
| 1777726504 | 5° C | 34% | 1021.1 hPa | 0 mm | - | - | - |
| 1777726218 | 4.44° C | 34% | 1021 hPa | 0 mm | - | - | - |
| 1777725937 | 4.44° C | 34% | 1021 hPa | 0 mm | - | - | - |
| 1777725904 | 4.44° C | 34% | 1021 hPa | 0 mm | - | - | - |
| 1777725323 | 5° C | 34% | 1020.9 hPa | 0 mm | - | - | - |
| 1777724897 | 4.44° C | 34% | 1020.8 hPa | 0 mm | - | - | - |
| 1777724558 | 5° C | 34% | 1020.6 hPa | 0 mm | - | - | - |
* Rain latest hour (hover to see other rain measurements)
** Current wind speed in m/s (hover to see current wind gust speed)